sensor_id;sensor_type;location;lat;lon;timestamp;pressure;altitude;pressure_sealevel;temperature;humidity
50550;BME280;36505;52.512;13.460;2023-04-29T00:01:30;100449.53;;;11.49;75.75
50550;BME280;36505;52.512;13.460;2023-04-29T00:03:55;100449.53;;;11.49;75.93
50550;BME280;36505;52.512;13.460;2023-04-29T00:06:21;100445.66;;;11.45;76.23
50550;BME280;36505;52.512;13.460;2023-04-29T00:08:46;100439.59;;;11.43;76.20
50550;BME280;36505;52.512;13.460;2023-04-29T00:11:12;100431.13;;;11.45;76.35
50550;BME280;36505;52.512;13.460;2023-04-29T00:13:37;100426.47;;;11.45;76.22
50550;BME280;36505;52.512;13.460;2023-04-29T00:16:06;100422.88;;;11.45;76.22
50550;BME280;36505;52.512;13.460;2023-04-29T00:18:31;100422.06;;;11.44;76.47
50550;BME280;36505;52.512;13.460;2023-04-29T00:20:57;100428.38;;;11.45;76.64
50550;BME280;36505;52.512;13.460;2023-04-29T00:23:22;100418.97;;;11.41;76.76
50550;BME280;36505;52.512;13.460;2023-04-29T00:25:48;100413.50;;;11.41;76.36
50550;BME280;36505;52.512;13.460;2023-04-29T00:28:14;100403.56;;;11.35;76.56
50550;BME280;36505;52.512;13.460;2023-04-29T00:30:39;100410.66;;;11.31;77.01
50550;BME280;36505;52.512;13.460;2023-04-29T00:33:05;100415.00;;;11.27;77.22
50550;BME280;36505;52.512;13.460;2023-04-29T00:35:30;100412.53;;;11.25;77.04
50550;BME280;36505;52.512;13.460;2023-04-29T00:37:55;100415.28;;;11.25;77.47
50550;BME280;36505;52.512;13.460;2023-04-29T00:40:21;100412.00;;;11.28;77.31
50550;BME280;36505;52.512;13.460;2023-04-29T00:42:46;100411.75;;;11.30;77.41
50550;BME280;36505;52.512;13.460;2023-04-29T00:45:12;100409.78;;;11.25;77.39
50550;BME280;36505;52.512;13.460;2023-04-29T00:47:37;100421.88;;;11.29;77.19
50550;BME280;36505;52.512;13.460;2023-04-29T00:50:04;100421.88;;;11.29;77.54
50550;BME280;36505;52.512;13.460;2023-04-29T00:52:30;100419.13;;;11.29;77.02
50550;BME280;36505;52.512;13.460;2023-04-29T00:54:56;100418.66;;;11.32;77.01
50550;BME280;36505;52.512;13.460;2023-04-29T00:57:22;100422.25;;;11.38;77.15
50550;BME280;36505;52.512;13.460;2023-04-29T00:59:48;100421.09;;;11.34;77.04
50550;BME280;36505;52.512;13.460;2023-04-29T01:02:14;100421.09;;;11.34;76.94
50550;BME280;36505;52.512;13.460;2023-04-29T01:04:41;100414.78;;;11.33;77.11
50550;BME280;36505;52.512;13.460;2023-04-29T01:07:16;100425.56;;;11.40;76.91
50550;BME280;36505;52.512;13.460;2023-04-29T01:12:44;100429.25;;;11.51;76.98
50550;BME280;36505;52.512;13.460;2023-04-29T01:15:46;100422.72;;;11.57;76.87
50550;BME280;36505;52.512;13.460;2023-04-29T01:18:10;100399.91;;;11.51;76.68
50550;BME280;36505;52.512;13.460;2023-04-29T01:20:37;100387.75;;;11.42;76.86
50550;BME280;36505;52.512;13.460;2023-04-29T01:23:03;100371.88;;;11.44;78.57
50550;BME280;36505;52.512;13.460;2023-04-29T01:25:29;100374.28;;;11.40;79.85
50550;BME280;36505;52.512;13.460;2023-04-29T01:31:05;100410.34;;;11.27;82.40
50550;BME280;36505;52.512;13.460;2023-04-29T01:34:11;100413.59;;;11.24;82.98
50550;BME280;36505;52.512;13.460;2023-04-29T01:40:42;100409.50;;;11.27;84.42
50550;BME280;36505;52.512;13.460;2023-04-29T01:42:39;100397.16;;;11.24;85.79
50550;BME280;36505;52.512;13.460;2023-04-29T01:45:10;100399.31;;;11.22;85.45
50550;BME280;36505;52.512;13.460;2023-04-29T01:47:39;100386.06;;;11.14;85.39
50550;BME280;36505;52.512;13.460;2023-04-29T01:50:05;100405.84;;;11.16;85.67
50550;BME280;36505;52.512;13.460;2023-04-29T01:52:31;100389.84;;;11.08;86.11
50550;BME280;36505;52.512;13.460;2023-04-29T01:54:56;100382.59;;;10.97;86.67
50550;BME280;36505;52.512;13.460;2023-04-29T01:57:22;100398.84;;;11.03;87.01
50550;BME280;36505;52.512;13.460;2023-04-29T01:59:47;100393.91;;;11.05;87.43
50550;BME280;36505;52.512;13.460;2023-04-29T02:02:12;100402.66;;;11.02;87.88
50550;BME280;36505;52.512;13.460;2023-04-29T02:04:39;100394.09;;;10.99;87.56
50550;BME280;36505;52.512;13.460;2023-04-29T02:07:05;100391.66;;;10.97;88.15
50550;BME280;36505;52.512;13.460;2023-04-29T02:09:30;100395.72;;;10.95;88.39
50550;BME280;36505;52.512;13.460;2023-04-29T02:11:55;100392.91;;;10.90;88.08
50550;BME280;36505;52.512;13.460;2023-04-29T02:14:21;100388.19;;;10.85;88.76
50550;BME280;36505;52.512;13.460;2023-04-29T02:16:46;100386.81;;;10.83;89.61
50550;BME280;36505;52.512;13.460;2023-04-29T02:19:12;100396.59;;;10.79;89.70
50550;BME280;36505;52.512;13.460;2023-04-29T02:21:37;100390.63;;;10.82;89.69
50550;BME280;36505;52.512;13.460;2023-04-29T02:24:05;100392.03;;;10.84;89.69
50550;BME280;36505;52.512;13.460;2023-04-29T02:26:30;100395.59;;;10.85;90.21
50550;BME280;36505;52.512;13.460;2023-04-29T02:28:57;100387.06;;;10.81;90.26
50550;BME280;36505;52.512;13.460;2023-04-29T02:31:22;100391.41;;;10.77;90.62
50550;BME280;36505;52.512;13.460;2023-04-29T02:33:47;100385.63;;;10.79;90.83
50550;BME280;36505;52.512;13.460;2023-04-29T02:36:13;100377.19;;;10.80;90.81
50550;BME280;36505;52.512;13.460;2023-04-29T02:38:38;100372.22;;;10.77;90.81
50550;BME280;36505;52.512;13.460;2023-04-29T02:41:03;100379.28;;;10.73;91.03
50550;BME280;36505;52.512;13.460;2023-04-29T02:43:29;100376.53;;;10.73;91.35
50550;BME280;36505;52.512;13.460;2023-04-29T02:45:55;100388.25;;;10.68;91.55
50550;BME280;36505;52.512;13.460;2023-04-29T02:48:21;100386.59;;;10.67;91.57
50550;BME280;36505;52.512;13.460;2023-04-29T02:50:46;100384.69;;;10.68;92.08
50550;BME280;36505;52.512;13.460;2023-04-29T02:53:12;100385.53;;;10.68;92.36
50550;BME280;36505;52.512;13.460;2023-04-29T02:55:37;100381.38;;;10.66;92.15
50550;BME280;36505;52.512;13.460;2023-04-29T02:58:03;100375.69;;;10.73;92.46
50550;BME280;36505;52.512;13.460;2023-04-29T03:00:28;100368.56;;;10.72;92.88
50550;BME280;36505;52.512;13.460;2023-04-29T03:02:53;100377.41;;;10.79;92.57
50550;BME280;36505;52.512;13.460;2023-04-29T03:05:19;100379.59;;;10.77;92.70
50550;BME280;36505;52.512;13.460;2023-04-29T03:07:44;100379.84;;;10.75;92.64
50550;BME280;36505;52.512;13.460;2023-04-29T03:10:10;100379.31;;;10.78;92.59
50550;BME280;36505;52.512;13.460;2023-04-29T03:12:36;100373.06;;;10.78;92.76
50550;BME280;36505;52.512;13.460;2023-04-29T03:15:02;100368.91;;;10.75;93.21
50550;BME280;36505;52.512;13.460;2023-04-29T03:17:27;100375.22;;;10.76;93.16
50550;BME280;36505;52.512;13.460;2023-04-29T03:19:52;100370.56;;;10.76;93.23
50550;BME280;36505;52.512;13.460;2023-04-29T03:22:18;100361.19;;;10.72;93.83
50550;BME280;36505;52.512;13.460;2023-04-29T03:24:44;100372.22;;;10.77;93.83
50550;BME280;36505;52.512;13.460;2023-04-29T03:27:09;100361.06;;;10.84;93.64
50550;BME280;36505;52.512;13.460;2023-04-29T03:29:35;100353.94;;;10.83;93.82
50550;BME280;36505;52.512;13.460;2023-04-29T03:32:00;100357.56;;;10.88;93.30
50550;BME280;36505;52.512;13.460;2023-04-29T03:34:26;100357.06;;;10.91;93.61
50550;BME280;36505;52.512;13.460;2023-04-29T03:36:52;100359.03;;;10.96;93.41
50550;BME280;36505;52.512;13.460;2023-04-29T03:39:18;100363.41;;;10.97;93.37
50550;BME280;36505;52.512;13.460;2023-04-29T03:41:43;100370.03;;;11.01;93.50
50550;BME280;36505;52.512;13.460;2023-04-29T03:44:11;100363.97;;;10.99;93.89
50550;BME280;36505;52.512;13.460;2023-04-29T03:46:36;100351.25;;;10.88;93.81
50550;BME280;36505;52.512;13.460;2023-04-29T03:49:01;100369.44;;;10.99;93.82
50550;BME280;36505;52.512;13.460;2023-04-29T03:51:27;100361.75;;;10.96;93.48
50550;BME280;36505;52.512;13.460;2023-04-29T03:53:53;100362.63;;;11.01;93.49
50550;BME280;36505;52.512;13.460;2023-04-29T03:56:20;100363.22;;;11.03;93.17
50550;BME280;36505;52.512;13.460;2023-04-29T03:58:47;100362.44;;;11.08;93.25
50550;BME280;36505;52.512;13.460;2023-04-29T04:01:12;100356.97;;;11.08;93.47
50550;BME280;36505;52.512;13.460;2023-04-29T04:03:38;100358.28;;;11.05;93.47
50550;BME280;36505;52.512;13.460;2023-04-29T04:06:03;100352.81;;;11.05;93.52
50550;BME280;36505;52.512;13.460;2023-04-29T04:08:28;100374.03;;;11.15;93.29
50550;BME280;36505;52.512;13.460;2023-04-29T04:10:54;100372.41;;;11.19;93.53
50550;BME280;36505;52.512;13.460;2023-04-29T04:13:26;100358.38;;;11.11;93.71
50550;BME280;36505;52.512;13.460;2023-04-29T04:15:52;100369.69;;;11.19;93.52
50550;BME280;36505;52.512;13.460;2023-04-29T04:18:17;100369.13;;;11.17;93.40
50550;BME280;36505;52.512;13.460;2023-04-29T04:20:42;100354.59;;;11.17;93.07
50550;BME280;36505;52.512;13.460;2023-04-29T04:23:08;100365.66;;;11.27;93.60
50550;BME280;36505;52.512;13.460;2023-04-29T04:25:33;100374.78;;;11.32;93.48
50550;BME280;36505;52.512;13.460;2023-04-29T04:27:58;100364.56;;;11.28;93.55
50550;BME280;36505;52.512;13.460;2023-04-29T04:30:24;100372.09;;;11.37;93.47
50550;BME280;36505;52.512;13.460;2023-04-29T04:32:49;100375.41;;;11.39;93.63
50550;BME280;36505;52.512;13.460;2023-04-29T04:35:14;100356.97;;;11.35;93.45
50550;BME280;36505;52.512;13.460;2023-04-29T04:37:40;100364.72;;;11.43;93.65
50550;BME280;36505;52.512;13.460;2023-04-29T04:40:06;100353.97;;;11.36;93.81
50550;BME280;36505;52.512;13.460;2023-04-29T04:42:32;100366.13;;;11.45;93.78
50550;BME280;36505;52.512;13.460;2023-04-29T04:44:57;100371.66;;;11.51;93.57
50550;BME280;36505;52.512;13.460;2023-04-29T04:47:23;100376.09;;;11.57;94.16
50550;BME280;36505;52.512;13.460;2023-04-29T04:49:48;100374.44;;;11.56;93.89
50550;BME280;36505;52.512;13.460;2023-04-29T04:52:20;100366.00;;;11.62;94.17
50550;BME280;36505;52.512;13.460;2023-04-29T04:54:46;100375.38;;;11.66;93.82
50550;BME280;36505;52.512;13.460;2023-04-29T04:57:12;100377.31;;;11.66;93.34
50550;BME280;36505;52.512;13.460;2023-04-29T04:59:37;100372.34;;;11.68;93.42
50550;BME280;36505;52.512;13.460;2023-04-29T05:02:02;100362.44;;;11.62;93.92
50550;BME280;36505;52.512;13.460;2023-04-29T05:04:28;100377.09;;;11.72;94.04
50550;BME280;36505;52.512;13.460;2023-04-29T05:06:56;100363.88;;;11.69;94.52
50550;BME280;36505;52.512;13.460;2023-04-29T05:09:21;100375.25;;;11.78;94.79
50550;BME280;36505;52.512;13.460;2023-04-29T05:11:46;100380.19;;;11.81;95.19
50550;BME280;36505;52.512;13.460;2023-04-29T05:14:12;100384.31;;;11.78;95.09
50550;BME280;36505;52.512;13.460;2023-04-29T05:16:37;100375.75;;;11.75;95.32
50550;BME280;36505;52.512;13.460;2023-04-29T05:19:03;100386.00;;;11.84;95.10
50550;BME280;36505;52.512;13.460;2023-04-29T05:21:28;100372.78;;;11.81;95.56
50550;BME280;36505;52.512;13.460;2023-04-29T05:23:53;100390.44;;;11.91;95.54
50550;BME280;36505;52.512;13.460;2023-04-29T05:26:19;100391.78;;;11.88;95.48
50550;BME280;36505;52.512;13.460;2023-04-29T05:28:44;100384.09;;;11.85;95.64
50550;BME280;36505;52.512;13.460;2023-04-29T05:31:09;100380.25;;;11.86;95.78
50550;BME280;36505;52.512;13.460;2023-04-29T05:33:35;100382.44;;;11.84;95.89
50550;BME280;36505;52.512;13.460;2023-04-29T05:36:00;100397.88;;;11.95;96.01
50550;BME280;36505;52.512;13.460;2023-04-29T05:38:26;100390.72;;;11.94;95.44
50550;BME280;36505;52.512;13.460;2023-04-29T05:40:54;100392.91;;;11.92;95.63
50550;BME280;36505;52.512;13.460;2023-04-29T05:43:20;100381.63;;;11.88;95.57
50550;BME280;36505;52.512;13.460;2023-04-29T05:45:46;100399.56;;;12.01;96.01
50550;BME280;36505;52.512;13.460;2023-04-29T05:48:11;100396.03;;;12.01;95.90
50550;BME280;36505;52.512;13.460;2023-04-29T05:50:36;100396.31;;;12.04;96.02
50550;BME280;36505;52.512;13.460;2023-04-29T05:53:02;100396.06;;;12.06;95.71
50550;BME280;36505;52.512;13.460;2023-04-29T05:55:28;100380.88;;;11.93;96.37
50550;BME280;36505;52.512;13.460;2023-04-29T05:57:54;100381.19;;;12.02;96.33
50550;BME280;36505;52.512;13.460;2023-04-29T06:00:20;100404.81;;;12.08;96.52
50550;BME280;36505;52.512;13.460;2023-04-29T06:02:45;100394.06;;;12.01;96.51
50550;BME280;36505;52.512;13.460;2023-04-29T06:05:11;100401.28;;;12.07;96.24
50550;BME280;36505;52.512;13.460;2023-04-29T06:07:36;100412.88;;;12.14;96.43
50550;BME280;36505;52.512;13.460;2023-04-29T06:10:01;100388.66;;;12.06;96.53
50550;BME280;36505;52.512;13.460;2023-04-29T06:12:27;100408.78;;;12.22;96.60
50550;BME280;36505;52.512;13.460;2023-04-29T06:14:53;100418.41;;;12.24;96.69
50550;BME280;36505;52.512;13.460;2023-04-29T06:17:18;100404.88;;;12.13;96.74
50550;BME280;36505;52.512;13.460;2023-04-29T06:19:44;100410.97;;;12.20;96.52
50550;BME280;36505;52.512;13.460;2023-04-29T06:22:09;100421.69;;;12.21;96.47
50550;BME280;36505;52.512;13.460;2023-04-29T06:24:34;100416.75;;;12.23;96.50
50550;BME280;36505;52.512;13.460;2023-04-29T06:27:00;100415.66;;;12.19;96.73
50550;BME280;36505;52.512;13.460;2023-04-29T06:29:26;100420.34;;;12.24;96.95
50550;BME280;36505;52.512;13.460;2023-04-29T06:31:51;100420.66;;;12.27;96.66
50550;BME280;36505;52.512;13.460;2023-04-29T06:34:18;100415.38;;;12.21;96.81
50550;BME280;36505;52.512;13.460;2023-04-29T06:36:44;100430.00;;;12.32;96.64
50550;BME280;36505;52.512;13.460;2023-04-29T06:39:09;100411.28;;;12.23;96.73
50550;BME280;36505;52.512;13.460;2023-04-29T06:41:35;100435.78;;;12.35;96.64
50550;BME280;36505;52.512;13.460;2023-04-29T06:44:01;100426.44;;;12.31;96.57
50550;BME280;36505;52.512;13.460;2023-04-29T06:46:26;100435.25;;;12.33;96.22
50550;BME280;36505;52.512;13.460;2023-04-29T06:48:53;100435.25;;;12.33;96.17
50550;BME280;36505;52.512;13.460;2023-04-29T06:51:18;100441.59;;;12.39;96.23
50550;BME280;36505;52.512;13.460;2023-04-29T06:53:44;100439.94;;;12.38;96.49
50550;BME280;36505;52.512;13.460;2023-04-29T06:56:09;100450.41;;;12.41;96.69
50550;BME280;36505;52.512;13.460;2023-04-29T06:58:35;100449.03;;;12.43;96.45
50550;BME280;36505;52.512;13.460;2023-04-29T07:01:00;100462.75;;;12.43;96.13
50550;BME280;36505;52.512;13.460;2023-04-29T07:03:28;100461.63;;;12.39;96.39
50550;BME280;36505;52.512;13.460;2023-04-29T07:05:53;100459.72;;;12.40;96.23
50550;BME280;36505;52.512;13.460;2023-04-29T07:08:18;100456.66;;;12.36;96.22
50550;BME280;36505;52.512;13.460;2023-04-29T07:10:52;100440.97;;;12.26;95.95
50550;BME280;36505;52.512;13.460;2023-04-29T07:13:18;100455.06;;;12.40;95.81
50550;BME280;36505;52.512;13.460;2023-04-29T07:15:43;100461.38;;;12.41;95.77
50550;BME280;36505;52.512;13.460;2023-04-29T07:18:09;100466.88;;;12.41;95.47
50550;BME280;36505;52.512;13.460;2023-04-29T07:20:37;100471.78;;;12.39;95.32
50550;BME280;36505;52.512;13.460;2023-04-29T07:23:02;100462.97;;;12.37;95.59
50550;BME280;36505;52.512;13.460;2023-04-29T07:25:28;100466.53;;;12.32;95.57
50550;BME280;36505;52.512;13.460;2023-04-29T07:27:54;100472.00;;;12.32;95.56
50550;BME280;36505;52.512;13.460;2023-04-29T07:30:20;100472.81;;;12.27;95.80
50550;BME280;36505;52.512;13.460;2023-04-29T07:32:45;100482.16;;;12.32;95.39
50550;BME280;36505;52.512;13.460;2023-04-29T07:35:11;100478.03;;;12.29;95.11
50550;BME280;36505;52.512;13.460;2023-04-29T07:37:36;100492.63;;;12.35;94.87
50550;BME280;36505;52.512;13.460;2023-04-29T07:40:02;100485.16;;;12.30;94.46
50550;BME280;36505;52.512;13.460;2023-04-29T07:42:27;100496.97;;;12.31;94.37
50550;BME280;36505;52.512;13.460;2023-04-29T07:44:52;100495.63;;;12.33;94.08
50550;BME280;36505;52.512;13.460;2023-04-29T07:47:18;100509.41;;;12.38;94.07
50550;BME280;36505;52.512;13.460;2023-04-29T07:49:43;100509.66;;;12.37;93.80
50550;BME280;36505;52.512;13.460;2023-04-29T07:52:08;100503.28;;;12.26;93.40
50550;BME280;36505;52.512;13.460;2023-04-29T07:54:37;100526.97;;;12.37;93.08
50550;BME280;36505;52.512;13.460;2023-04-29T07:57:02;100523.59;;;12.30;92.87
50550;BME280;36505;52.512;13.460;2023-04-29T07:59:31;100504.31;;;12.20;92.60
50550;BME280;36505;52.512;13.460;2023-04-29T08:01:57;100526.94;;;12.32;92.43
50550;BME280;36505;52.512;13.460;2023-04-29T08:04:22;100539.00;;;12.31;92.49
50550;BME280;36505;52.512;13.460;2023-04-29T08:06:48;100541.75;;;12.31;92.14
50550;BME280;36505;52.512;13.460;2023-04-29T08:09:14;100551.94;;;12.36;92.05
50550;BME280;36505;52.512;13.460;2023-04-29T08:11:40;100546.72;;;12.34;91.94
50550;BME280;36505;52.512;13.460;2023-04-29T08:14:05;100553.59;;;12.37;91.56
50550;BME280;36505;52.512;13.460;2023-04-29T08:16:31;100542.47;;;12.21;91.32
50550;BME280;36505;52.512;13.460;2023-04-29T08:18:56;100573.84;;;12.31;90.97
50550;BME280;36505;52.512;13.460;2023-04-29T08:21:22;100570.53;;;12.28;91.16
50550;BME280;36505;52.512;13.460;2023-04-29T08:23:47;100577.41;;;12.26;91.48
50550;BME280;36505;52.512;13.460;2023-04-29T08:26:13;100576.53;;;12.20;91.67
50550;BME280;36505;52.512;13.460;2023-04-29T08:28:38;100578.94;;;12.17;91.78
50550;BME280;36505;52.512;13.460;2023-04-29T08:31:04;100576.94;;;12.07;91.88
50550;BME280;36505;52.512;13.460;2023-04-29T08:33:34;100592.91;;;12.15;90.94
50550;BME280;36505;52.512;13.460;2023-04-29T08:36:00;100582.94;;;12.04;90.65
50550;BME280;36505;52.512;13.460;2023-04-29T08:38:28;100620.91;;;12.12;90.54
50550;BME280;36505;52.512;13.460;2023-04-29T08:40:53;100603.78;;;12.05;90.25
50550;BME280;36505;52.512;13.460;2023-04-29T08:43:19;100607.66;;;12.09;89.88
50550;BME280;36505;52.512;13.460;2023-04-29T08:45:46;100625.84;;;12.15;89.88
50550;BME280;36505;52.512;13.460;2023-04-29T08:48:12;100624.38;;;12.08;89.77
50550;BME280;36505;52.512;13.460;2023-04-29T08:50:39;100634.63;;;12.12;89.54
50550;BME280;36505;52.512;13.460;2023-04-29T08:53:08;100632.72;;;12.13;89.11
50550;BME280;36505;52.512;13.460;2023-04-29T08:55:35;100640.34;;;12.11;89.35
50550;BME280;36505;52.512;13.460;2023-04-29T08:58:02;100647.19;;;12.08;89.35
50550;BME280;36505;52.512;13.460;2023-04-29T09:00:31;100639.41;;;12.00;89.80
50550;BME280;36505;52.512;13.460;2023-04-29T09:02:57;100639.34;;;11.95;89.76
50550;BME280;36505;52.512;13.460;2023-04-29T09:05:23;100662.50;;;12.04;89.45
50550;BME280;36505;52.512;13.460;2023-04-29T09:07:50;100613.22;;;11.71;88.92
50550;BME280;36505;52.512;13.460;2023-04-29T09:10:15;100662.66;;;11.93;89.28
50550;BME280;36505;52.512;13.460;2023-04-29T09:12:41;100653.97;;;11.79;89.42
50550;BME280;36505;52.512;13.460;2023-04-29T09:15:07;100675.38;;;11.82;89.34
50550;BME280;36505;52.512;13.460;2023-04-29T09:25:17;100695.19;;;11.67;89.16
50550;BME280;36505;52.512;13.460;2023-04-29T09:27:42;100692.97;;;11.64;89.43
50550;BME280;36505;52.512;13.460;2023-04-29T09:30:08;100698.63;;;11.58;89.48
50550;BME280;36505;52.512;13.460;2023-04-29T09:32:34;100693.06;;;11.53;89.35
50550;BME280;36505;52.512;13.460;2023-04-29T09:35:25;100704.69;;;11.60;88.97
50550;BME280;36505;52.512;13.460;2023-04-29T09:37:51;100705.44;;;11.55;88.83
50550;BME280;36505;52.512;13.460;2023-04-29T09:40:31;100720.56;;;11.58;89.18
50550;BME280;36505;52.512;13.460;2023-04-29T09:42:57;100720.22;;;11.54;89.56
50550;BME280;36505;52.512;13.460;2023-04-29T09:48:02;100728.44;;;11.54;89.72
50550;BME280;36505;52.512;13.460;2023-04-29T09:50:28;100729.28;;;11.55;90.26
50550;BME280;36505;52.512;13.460;2023-04-29T09:52:53;100746.72;;;11.65;89.81
50550;BME280;36505;52.512;13.460;2023-04-29T09:55:19;100742.09;;;11.66;89.58
50550;BME280;36505;52.512;13.460;2023-04-29T09:57:44;100741.81;;;11.67;89.34
50550;BME280;36505;52.512;13.460;2023-04-29T10:00:11;100742.63;;;11.68;88.98
50550;BME280;36505;52.512;13.460;2023-04-29T10:02:40;100744.53;;;11.67;89.40
50550;BME280;36505;52.512;13.460;2023-04-29T10:05:06;100758.25;;;11.67;89.11
50550;BME280;36505;52.512;13.460;2023-04-29T10:07:34;100758.03;;;11.69;88.86
50550;BME280;36505;52.512;13.460;2023-04-29T10:10:01;100756.88;;;11.65;89.25
50550;BME280;36505;52.512;13.460;2023-04-29T10:12:30;100768.56;;;11.60;89.32
50550;BME280;36505;52.512;13.460;2023-04-29T10:17:46;100775.66;;;11.56;89.11
50550;BME280;36505;52.512;13.460;2023-04-29T10:20:14;100780.06;;;11.57;88.62
50550;BME280;36505;52.512;13.460;2023-04-29T10:22:51;100785.31;;;11.59;88.30
50550;BME280;36505;52.512;13.460;2023-04-29T10:25:20;100776.50;;;11.57;88.17
50550;BME280;36505;52.512;13.460;2023-04-29T10:27:46;100777.06;;;11.59;87.70
50550;BME280;36505;52.512;13.460;2023-04-29T10:30:17;100773.91;;;11.67;87.33
50550;BME280;36505;52.512;13.460;2023-04-29T10:32:44;100779.66;;;11.65;87.65
50550;BME280;36505;52.512;13.460;2023-04-29T10:35:12;100789.53;;;11.66;87.81
50550;BME280;36505;52.512;13.460;2023-04-29T10:37:39;100789.03;;;11.69;87.92
50550;BME280;36505;52.512;13.460;2023-04-29T10:45:24;100795.63;;;11.85;86.44
50550;BME280;36505;52.512;13.460;2023-04-29T10:50:30;100799.72;;;12.04;85.73
50550;BME280;36505;52.512;13.460;2023-04-29T10:52:56;100813.94;;;12.18;84.87
50550;BME280;36505;52.512;13.460;2023-04-29T10:55:22;100806.34;;;12.25;84.17
50550;BME280;36505;52.512;13.460;2023-04-29T10:57:51;100811.25;;;12.23;84.37
50550;BME280;36505;52.512;13.460;2023-04-29T11:00:27;100796.03;;;12.15;83.89
50550;BME280;36505;52.512;13.460;2023-04-29T11:02:57;100817.06;;;12.26;83.35
50550;BME280;36505;52.512;13.460;2023-04-29T11:05:36;100821.50;;;12.27;83.32
50550;BME280;36505;52.512;13.460;2023-04-29T11:08:14;100815.72;;;12.29;83.12
50550;BME280;36505;52.512;13.460;2023-04-29T11:10:51;100822.31;;;12.28;83.24
50550;BME280;36505;52.512;13.460;2023-04-29T11:13:28;100827.69;;;12.40;83.05
50550;BME280;36505;52.512;13.460;2023-04-29T11:18:28;100834.03;;;12.62;81.53
50550;BME280;36505;52.512;13.460;2023-04-29T11:23:28;100827.75;;;12.88;80.47
50550;BME280;36505;52.512;13.460;2023-04-29T11:25:53;100834.78;;;13.06;79.35
50550;BME280;36505;52.512;13.460;2023-04-29T11:28:21;100843.50;;;13.20;78.59
50550;BME280;36505;52.512;13.460;2023-04-29T11:30:47;100844.16;;;13.32;77.75
50550;BME280;36505;52.512;13.460;2023-04-29T11:33:14;100850.88;;;13.41;77.53
50550;BME280;36505;52.512;13.460;2023-04-29T11:35:40;100849.84;;;13.52;77.19
50550;BME280;36505;52.512;13.460;2023-04-29T11:38:06;100860.13;;;13.62;76.78
50550;BME280;36505;52.512;13.460;2023-04-29T11:40:32;100858.88;;;13.74;76.76
50550;BME280;36505;52.512;13.460;2023-04-29T11:42:57;100858.44;;;13.93;76.63
50550;BME280;36505;52.512;13.460;2023-04-29T11:45:23;100851.50;;;14.22;76.12
50550;BME280;36505;52.512;13.460;2023-04-29T11:47:48;100859.44;;;14.55;74.69
50550;BME280;36505;52.512;13.460;2023-04-29T11:50:15;100864.19;;;14.70;72.77
50550;BME280;36505;52.512;13.460;2023-04-29T11:52:45;100860.66;;;14.80;71.85
50550;BME280;36505;52.512;13.460;2023-04-29T11:55:11;100865.59;;;14.73;70.82
50550;BME280;36505;52.512;13.460;2023-04-29T11:57:37;100852.03;;;14.61;70.76
50550;BME280;36505;52.512;13.460;2023-04-29T12:00:03;100858.38;;;14.61;70.51
50550;BME280;36505;52.512;13.460;2023-04-29T12:02:33;100871.94;;;14.73;70.67
50550;BME280;36505;52.512;13.460;2023-04-29T12:04:59;100858.41;;;14.67;70.70
50550;BME280;36505;52.512;13.460;2023-04-29T12:07:25;100872.22;;;14.72;70.18
50550;BME280;36505;52.512;13.460;2023-04-29T12:09:51;100877.47;;;14.73;69.88
50550;BME280;36505;52.512;13.460;2023-04-29T12:12:16;100886.50;;;14.69;70.12
50550;BME280;36505;52.512;13.460;2023-04-29T12:14:42;100880.41;;;14.61;70.75
50550;BME280;36505;52.512;13.460;2023-04-29T12:17:08;100893.31;;;14.51;69.94
50550;BME280;36505;52.512;13.460;2023-04-29T12:19:34;100877.72;;;14.30;69.73
50550;BME280;36505;52.512;13.460;2023-04-29T12:22:03;100891.16;;;14.21;69.78
50550;BME280;36505;52.512;13.460;2023-04-29T12:24:35;100892.69;;;14.07;69.86
50550;BME280;36505;52.512;13.460;2023-04-29T12:27:01;100902.56;;;13.98;69.70
50550;BME280;36505;52.512;13.460;2023-04-29T12:29:27;100898.63;;;13.89;69.70
50550;BME280;36505;52.512;13.460;2023-04-29T12:31:52;100908.81;;;13.88;70.30
50550;BME280;36505;52.512;13.460;2023-04-29T12:34:27;100903.06;;;13.95;70.98
50550;BME280;36505;52.512;13.460;2023-04-29T12:36:54;100906.22;;;14.08;70.56
50550;BME280;36505;52.512;13.460;2023-04-29T12:39:20;100909.66;;;14.26;70.33
50550;BME280;36505;52.512;13.460;2023-04-29T12:41:46;100907.56;;;14.38;70.21
50550;BME280;36505;52.512;13.460;2023-04-29T12:44:11;100906.19;;;14.40;69.74
50550;BME280;36505;52.512;13.460;2023-04-29T12:46:38;100908.16;;;14.45;69.43
50550;BME280;36505;52.512;13.460;2023-04-29T12:49:05;100909.28;;;14.49;69.53
50550;BME280;36505;52.512;13.460;2023-04-29T12:51:31;100900.72;;;14.45;68.75
50550;BME280;36505;52.512;13.460;2023-04-29T12:54:01;100903.38;;;14.35;68.06
50550;BME280;36505;52.512;13.460;2023-04-29T12:56:32;100914.84;;;14.22;68.08
50550;BME280;36505;52.512;13.460;2023-04-29T12:59:09;100910.50;;;14.26;67.74
50550;BME280;36505;52.512;13.460;2023-04-29T13:01:36;100918.34;;;14.44;67.63
50550;BME280;36505;52.512;13.460;2023-04-29T13:04:02;100921.22;;;14.65;66.64
50550;BME280;36505;52.512;13.460;2023-04-29T13:06:30;100919.09;;;14.82;66.31
50550;BME280;36505;52.512;13.460;2023-04-29T13:08:56;100927.47;;;15.02;65.34
50550;BME280;36505;52.512;13.460;2023-04-29T13:11:21;100923.63;;;15.08;64.95
50550;BME280;36505;52.512;13.460;2023-04-29T13:13:46;100927.25;;;15.14;64.80